sensor_id;sensor_type;location;lat;lon;timestamp;temperature;humidity
46562;DHT22;32289;42.688;23.330;2023-12-20T00:01:15;-0.20;99.90
46562;DHT22;32289;42.688;23.330;2023-12-20T00:04:56;-0.20;99.90
46562;DHT22;32289;42.688;23.330;2023-12-20T00:08:37;-0.20;99.90
46562;DHT22;32289;42.688;23.330;2023-12-20T00:12:18;-0.20;99.90
46562;DHT22;32289;42.688;23.330;2023-12-20T00:15:58;-0.20;99.90
46562;DHT22;32289;42.688;23.330;2023-12-20T00:19:39;-0.10;99.90
46562;DHT22;32289;42.688;23.330;2023-12-20T00:23:20;-0.10;99.90
46562;DHT22;32289;42.688;23.330;2023-12-20T00:27:01;-0.10;99.90
46562;DHT22;32289;42.688;23.330;2023-12-20T00:30:42;-0.40;99.90
46562;DHT22;32289;42.688;23.330;2023-12-20T00:34:23;-0.60;99.90
46562;DHT22;32289;42.688;23.330;2023-12-20T00:38:04;-0.60;99.90
46562;DHT22;32289;42.688;23.330;2023-12-20T00:41:47;-1.00;99.90
46562;DHT22;32289;42.688;23.330;2023-12-20T00:45:28;-1.10;99.90
46562;DHT22;32289;42.688;23.330;2023-12-20T00:49:08;-0.80;99.90
46562;DHT22;32289;42.688;23.330;2023-12-20T00:52:49;-0.80;99.90
46562;DHT22;32289;42.688;23.330;2023-12-20T00:56:30;-0.60;99.90
46562;DHT22;32289;42.688;23.330;2023-12-20T01:00:10;-0.70;99.90
46562;DHT22;32289;42.688;23.330;2023-12-20T01:03:51;-0.70;99.90
46562;DHT22;32289;42.688;23.330;2023-12-20T01:07:33;-0.60;99.90
46562;DHT22;32289;42.688;23.330;2023-12-20T01:11:13;-0.80;99.90
46562;DHT22;32289;42.688;23.330;2023-12-20T01:14:54;-0.80;99.90
46562;DHT22;32289;42.688;23.330;2023-12-20T01:18:35;-0.90;99.90
46562;DHT22;32289;42.688;23.330;2023-12-20T01:22:15;-0.90;99.90
46562;DHT22;32289;42.688;23.330;2023-12-20T01:25:56;-1.00;99.90
46562;DHT22;32289;42.688;23.330;2023-12-20T01:29:37;-1.00;99.90
46562;DHT22;32289;42.688;23.330;2023-12-20T01:33:17;-0.80;99.90
46562;DHT22;32289;42.688;23.330;2023-12-20T01:36:58;-0.80;99.90
46562;DHT22;32289;42.688;23.330;2023-12-20T01:40:39;-0.80;99.90
46562;DHT22;32289;42.688;23.330;2023-12-20T01:44:19;-0.80;99.90
46562;DHT22;32289;42.688;23.330;2023-12-20T01:48:01;-0.80;99.90
46562;DHT22;32289;42.688;23.330;2023-12-20T01:51:43;-0.90;99.90
46562;DHT22;32289;42.688;23.330;2023-12-20T01:55:25;-0.80;99.90
46562;DHT22;32289;42.688;23.330;2023-12-20T01:59:07;-1.10;99.90
46562;DHT22;32289;42.688;23.330;2023-12-20T02:02:50;-1.00;99.90
46562;DHT22;32289;42.688;23.330;2023-12-20T02:06:33;-1.10;99.90
46562;DHT22;32289;42.688;23.330;2023-12-20T02:10:15;-1.10;99.90
46562;DHT22;32289;42.688;23.330;2023-12-20T02:13:56;-1.20;99.90
46562;DHT22;32289;42.688;23.330;2023-12-20T02:17:38;-1.10;99.90
46562;DHT22;32289;42.688;23.330;2023-12-20T02:21:33;-1.30;99.90
46562;DHT22;32289;42.688;23.330;2023-12-20T02:25:16;-1.20;99.90
46562;DHT22;32289;42.688;23.330;2023-12-20T02:28:57;-1.20;99.90
46562;DHT22;32289;42.688;23.330;2023-12-20T02:32:38;-1.20;99.90
46562;DHT22;32289;42.688;23.330;2023-12-20T02:36:18;-1.40;99.90
46562;DHT22;32289;42.688;23.330;2023-12-20T02:39:59;-1.40;99.90
46562;DHT22;32289;42.688;23.330;2023-12-20T02:43:40;-1.60;99.90
46562;DHT22;32289;42.688;23.330;2023-12-20T02:47:20;-1.60;99.90
46562;DHT22;32289;42.688;23.330;2023-12-20T02:51:01;-1.70;99.90
46562;DHT22;32289;42.688;23.330;2023-12-20T02:54:42;-1.90;99.90
46562;DHT22;32289;42.688;23.330;2023-12-20T02:58:22;-1.80;99.90
46562;DHT22;32289;42.688;23.330;2023-12-20T03:02:03;-1.90;99.90
46562;DHT22;32289;42.688;23.330;2023-12-20T03:05:45;-1.80;99.90
46562;DHT22;32289;42.688;23.330;2023-12-20T03:09:26;-1.90;99.90
46562;DHT22;32289;42.688;23.330;2023-12-20T03:13:07;-1.90;99.90
46562;DHT22;32289;42.688;23.330;2023-12-20T03:16:52;-2.10;99.90
46562;DHT22;32289;42.688;23.330;2023-12-20T03:20:33;-2.20;99.90
46562;DHT22;32289;42.688;23.330;2023-12-20T03:24:14;-2.20;99.90
46562;DHT22;32289;42.688;23.330;2023-12-20T03:27:55;-2.40;99.90
46562;DHT22;32289;42.688;23.330;2023-12-20T03:31:35;-2.30;99.90
46562;DHT22;32289;42.688;23.330;2023-12-20T03:35:16;-2.40;99.90
46562;DHT22;32289;42.688;23.330;2023-12-20T03:38:57;-2.30;99.90
46562;DHT22;32289;42.688;23.330;2023-12-20T03:42:37;-2.10;99.90
46562;DHT22;32289;42.688;23.330;2023-12-20T03:46:18;-2.00;99.90
46562;DHT22;32289;42.688;23.330;2023-12-20T03:49:59;-2.10;99.90
46562;DHT22;32289;42.688;23.330;2023-12-20T03:53:39;-2.30;99.90
46562;DHT22;32289;42.688;23.330;2023-12-20T03:57:21;-2.10;99.90
46562;DHT22;32289;42.688;23.330;2023-12-20T04:01:01;-2.20;99.90
46562;DHT22;32289;42.688;23.330;2023-12-20T04:04:43;-2.20;99.90
46562;DHT22;32289;42.688;23.330;2023-12-20T04:08:23;-2.10;99.90
46562;DHT22;32289;42.688;23.330;2023-12-20T04:12:04;-2.20;99.90
46562;DHT22;32289;42.688;23.330;2023-12-20T04:15:46;-2.10;99.90
46562;DHT22;32289;42.688;23.330;2023-12-20T04:19:27;-2.20;99.90
46562;DHT22;32289;42.688;23.330;2023-12-20T04:23:07;-2.10;99.90
46562;DHT22;32289;42.688;23.330;2023-12-20T04:26:48;-2.10;99.90
46562;DHT22;32289;42.688;23.330;2023-12-20T04:30:29;-2.10;99.90
46562;DHT22;32289;42.688;23.330;2023-12-20T04:34:09;-2.30;99.90
46562;DHT22;32289;42.688;23.330;2023-12-20T04:37:50;-2.30;99.90
46562;DHT22;32289;42.688;23.330;2023-12-20T04:41:31;-2.40;99.90
46562;DHT22;32289;42.688;23.330;2023-12-20T04:45:11;-2.50;99.90
46562;DHT22;32289;42.688;23.330;2023-12-20T04:48:54;-2.40;99.90
46562;DHT22;32289;42.688;23.330;2023-12-20T04:52:34;-2.50;99.90
46562;DHT22;32289;42.688;23.330;2023-12-20T04:56:15;-2.60;99.90
46562;DHT22;32289;42.688;23.330;2023-12-20T04:59:56;-2.70;99.90
46562;DHT22;32289;42.688;23.330;2023-12-20T05:03:37;-2.70;99.90
46562;DHT22;32289;42.688;23.330;2023-12-20T05:07:17;-2.70;99.90
46562;DHT22;32289;42.688;23.330;2023-12-20T05:10:58;-2.60;99.90
46562;DHT22;32289;42.688;23.330;2023-12-20T05:14:39;-2.70;99.90
46562;DHT22;32289;42.688;23.330;2023-12-20T05:18:20;-2.70;99.90
46562;DHT22;32289;42.688;23.330;2023-12-20T05:22:02;-2.80;99.90
46562;DHT22;32289;42.688;23.330;2023-12-20T05:25:43;-2.80;99.90
46562;DHT22;32289;42.688;23.330;2023-12-20T05:29:23;-2.70;99.90
46562;DHT22;32289;42.688;23.330;2023-12-20T05:33:04;-2.40;99.90
46562;DHT22;32289;42.688;23.330;2023-12-20T05:36:45;-2.50;99.90
46562;DHT22;32289;42.688;23.330;2023-12-20T05:40:25;-2.80;99.90
46562;DHT22;32289;42.688;23.330;2023-12-20T05:44:06;-2.80;99.90
46562;DHT22;32289;42.688;23.330;2023-12-20T05:47:47;-3.10;99.90
46562;DHT22;32289;42.688;23.330;2023-12-20T05:51:28;-3.10;99.90
46562;DHT22;32289;42.688;23.330;2023-12-20T05:55:08;-3.10;99.90
46562;DHT22;32289;42.688;23.330;2023-12-20T05:58:49;-3.10;99.90
46562;DHT22;32289;42.688;23.330;2023-12-20T06:02:30;-3.10;99.90
46562;DHT22;32289;42.688;23.330;2023-12-20T06:06:10;-2.70;99.90
46562;DHT22;32289;42.688;23.330;2023-12-20T06:09:51;-2.50;99.90
46562;DHT22;32289;42.688;23.330;2023-12-20T06:13:32;-2.60;99.90
46562;DHT22;32289;42.688;23.330;2023-12-20T06:17:12;-2.60;99.90
46562;DHT22;32289;42.688;23.330;2023-12-20T06:20:54;-1.70;99.90
46562;DHT22;32289;42.688;23.330;2023-12-20T06:24:35;-2.00;99.90
46562;DHT22;32289;42.688;23.330;2023-12-20T06:28:15;-1.90;99.90
46562;DHT22;32289;42.688;23.330;2023-12-20T06:31:56;-2.20;99.90
46562;DHT22;32289;42.688;23.330;2023-12-20T06:35:37;-2.10;99.90
46562;DHT22;32289;42.688;23.330;2023-12-20T06:39:17;-2.20;99.90
46562;DHT22;32289;42.688;23.330;2023-12-20T06:42:58;-2.30;99.90
46562;DHT22;32289;42.688;23.330;2023-12-20T06:46:40;-2.40;99.90
46562;DHT22;32289;42.688;23.330;2023-12-20T06:50:20;-2.50;99.90
46562;DHT22;32289;42.688;23.330;2023-12-20T06:54:01;-2.40;99.90
46562;DHT22;32289;42.688;23.330;2023-12-20T06:57:43;-2.40;99.90
46562;DHT22;32289;42.688;23.330;2023-12-20T07:01:23;-2.30;99.90
46562;DHT22;32289;42.688;23.330;2023-12-20T07:05:04;-1.90;99.90
46562;DHT22;32289;42.688;23.330;2023-12-20T07:08:45;-1.70;99.90
46562;DHT22;32289;42.688;23.330;2023-12-20T07:12:26;-1.60;99.90
46562;DHT22;32289;42.688;23.330;2023-12-20T07:16:07;-1.80;99.90
46562;DHT22;32289;42.688;23.330;2023-12-20T07:19:47;-1.70;99.90
46562;DHT22;32289;42.688;23.330;2023-12-20T07:23:28;-1.70;99.90
46562;DHT22;32289;42.688;23.330;2023-12-20T07:27:08;-1.70;99.90
46562;DHT22;32289;42.688;23.330;2023-12-20T07:30:49;-1.40;99.90
46562;DHT22;32289;42.688;23.330;2023-12-20T07:34:30;-1.20;99.90
46562;DHT22;32289;42.688;23.330;2023-12-20T07:38:11;-0.90;99.90
46562;DHT22;32289;42.688;23.330;2023-12-20T07:41:52;-1.20;99.90
46562;DHT22;32289;42.688;23.330;2023-12-20T07:45:33;-1.30;99.90
46562;DHT22;32289;42.688;23.330;2023-12-20T07:49:14;-1.30;99.90
46562;DHT22;32289;42.688;23.330;2023-12-20T07:52:54;-1.10;99.90
46562;DHT22;32289;42.688;23.330;2023-12-20T07:56:35;-1.20;99.90
46562;DHT22;32289;42.688;23.330;2023-12-20T08:00:17;-1.10;99.90
46562;DHT22;32289;42.688;23.330;2023-12-20T08:03:57;-1.20;99.90
46562;DHT22;32289;42.688;23.330;2023-12-20T08:07:38;-1.30;99.90
46562;DHT22;32289;42.688;23.330;2023-12-20T08:11:19;-0.90;99.90
46562;DHT22;32289;42.688;23.330;2023-12-20T08:15:00;-0.60;99.90
46562;DHT22;32289;42.688;23.330;2023-12-20T08:18:40;-0.40;99.90
46562;DHT22;32289;42.688;23.330;2023-12-20T08:22:21;-0.40;99.90
46562;DHT22;32289;42.688;23.330;2023-12-20T08:26:06;0.30;99.90
46562;DHT22;32289;42.688;23.330;2023-12-20T08:29:47;-0.10;99.90
46562;DHT22;32289;42.688;23.330;2023-12-20T08:33:28;0.20;99.90
46562;DHT22;32289;42.688;23.330;2023-12-20T08:37:09;0.80;99.90
46562;DHT22;32289;42.688;23.330;2023-12-20T08:40:50;0.70;99.90
46562;DHT22;32289;42.688;23.330;2023-12-20T08:44:31;0.30;99.90
46562;DHT22;32289;42.688;23.330;2023-12-20T08:48:11;0.00;99.90
46562;DHT22;32289;42.688;23.330;2023-12-20T08:51:52;0.10;99.90
46562;DHT22;32289;42.688;23.330;2023-12-20T08:55:33;0.30;99.90
46562;DHT22;32289;42.688;23.330;2023-12-20T08:59:13;0.50;99.90
46562;DHT22;32289;42.688;23.330;2023-12-20T09:02:54;0.60;99.90
46562;DHT22;32289;42.688;23.330;2023-12-20T09:06:35;0.40;99.90
46562;DHT22;32289;42.688;23.330;2023-12-20T09:10:16;0.40;99.90
46562;DHT22;32289;42.688;23.330;2023-12-20T09:13:56;0.40;99.90
46562;DHT22;32289;42.688;23.330;2023-12-20T09:17:37;0.20;99.90
46562;DHT22;32289;42.688;23.330;2023-12-20T09:21:18;0.00;99.90
46562;DHT22;32289;42.688;23.330;2023-12-20T09:24:59;0.10;99.90
46562;DHT22;32289;42.688;23.330;2023-12-20T09:28:39;0.50;99.90
46562;DHT22;32289;42.688;23.330;2023-12-20T09:32:20;0.50;99.90
46562;DHT22;32289;42.688;23.330;2023-12-20T09:36:01;0.50;99.90
46562;DHT22;32289;42.688;23.330;2023-12-20T09:39:42;0.60;99.90
46562;DHT22;32289;42.688;23.330;2023-12-20T09:43:24;0.60;99.90
46562;DHT22;32289;42.688;23.330;2023-12-20T09:47:06;0.30;99.90
46562;DHT22;32289;42.688;23.330;2023-12-20T09:50:47;1.00;99.90
46562;DHT22;32289;42.688;23.330;2023-12-20T09:54:28;1.20;99.90
46562;DHT22;32289;42.688;23.330;2023-12-20T09:58:09;1.10;99.90
46562;DHT22;32289;42.688;23.330;2023-12-20T10:01:51;1.00;99.90
46562;DHT22;32289;42.688;23.330;2023-12-20T10:05:34;1.50;99.90
46562;DHT22;32289;42.688;23.330;2023-12-20T10:09:15;2.50;99.90
46562;DHT22;32289;42.688;23.330;2023-12-20T10:13:09;3.90;99.90
46562;DHT22;32289;42.688;23.330;2023-12-20T10:16:50;3.50;99.90
46562;DHT22;32289;42.688;23.330;2023-12-20T10:20:31;3.80;99.90
46562;DHT22;32289;42.688;23.330;2023-12-20T10:24:17;3.40;99.90
46562;DHT22;32289;42.688;23.330;2023-12-20T10:28:12;4.80;99.90
46562;DHT22;32289;42.688;23.330;2023-12-20T10:31:53;6.10;99.90
46562;DHT22;32289;42.688;23.330;2023-12-20T10:35:39;5.00;99.90
46562;DHT22;32289;42.688;23.330;2023-12-20T10:39:20;5.60;99.90
46562;DHT22;32289;42.688;23.330;2023-12-20T10:43:02;5.60;99.90
46562;DHT22;32289;42.688;23.330;2023-12-20T10:46:43;5.10;99.90
46562;DHT22;32289;42.688;23.330;2023-12-20T10:50:31;4.90;99.90
46562;DHT22;32289;42.688;23.330;2023-12-20T10:54:11;4.20;99.90
46562;DHT22;32289;42.688;23.330;2023-12-20T10:57:55;4.70;99.90
46562;DHT22;32289;42.688;23.330;2023-12-20T11:01:41;4.50;99.90
46562;DHT22;32289;42.688;23.330;2023-12-20T11:05:41;4.30;99.90
46562;DHT22;32289;42.688;23.330;2023-12-20T11:09:29;5.40;99.90
46562;DHT22;32289;42.688;23.330;2023-12-20T11:13:17;4.50;99.90
46562;DHT22;32289;42.688;23.330;2023-12-20T11:17:10;4.20;99.90
46562;DHT22;32289;42.688;23.330;2023-12-20T11:20:54;3.20;99.90
46562;DHT22;32289;42.688;23.330;2023-12-20T11:24:35;2.90;99.90
46562;DHT22;32289;42.688;23.330;2023-12-20T11:28:22;2.50;99.90
46562;DHT22;32289;42.688;23.330;2023-12-20T11:32:04;2.20;99.90
46562;DHT22;32289;42.688;23.330;2023-12-20T11:36:14;2.30;99.90
46562;DHT22;32289;42.688;23.330;2023-12-20T11:39:56;2.20;99.90
46562;DHT22;32289;42.688;23.330;2023-12-20T11:43:38;2.50;99.90
46562;DHT22;32289;42.688;23.330;2023-12-20T11:47:19;2.10;99.90
46562;DHT22;32289;42.688;23.330;2023-12-20T11:51:00;2.10;99.90
46562;DHT22;32289;42.688;23.330;2023-12-20T11:54:41;2.30;99.90
46562;DHT22;32289;42.688;23.330;2023-12-20T11:58:22;2.20;99.90
46562;DHT22;32289;42.688;23.330;2023-12-20T12:02:02;2.60;99.90
46562;DHT22;32289;42.688;23.330;2023-12-20T12:05:45;2.80;99.90
46562;DHT22;32289;42.688;23.330;2023-12-20T12:09:26;4.00;99.90
46562;DHT22;32289;42.688;23.330;2023-12-20T12:13:07;3.80;99.90
46562;DHT22;32289;42.688;23.330;2023-12-20T12:16:49;3.80;99.90
46562;DHT22;32289;42.688;23.330;2023-12-20T12:20:31;3.70;99.90
46562;DHT22;32289;42.688;23.330;2023-12-20T12:24:12;3.40;99.90
46562;DHT22;32289;42.688;23.330;2023-12-20T12:27:52;3.30;99.90
46562;DHT22;32289;42.688;23.330;2023-12-20T12:31:33;3.20;99.90
46562;DHT22;32289;42.688;23.330;2023-12-20T12:35:14;3.00;99.90
46562;DHT22;32289;42.688;23.330;2023-12-20T12:38:57;3.00;99.90
46562;DHT22;32289;42.688;23.330;2023-12-20T12:42:38;3.00;99.90
46562;DHT22;32289;42.688;23.330;2023-12-20T12:46:19;2.80;99.90
46562;DHT22;32289;42.688;23.330;2023-12-20T12:50:00;2.80;99.90
46562;DHT22;32289;42.688;23.330;2023-12-20T12:53:40;2.70;99.90
46562;DHT22;32289;42.688;23.330;2023-12-20T12:57:21;2.60;99.90
46562;DHT22;32289;42.688;23.330;2023-12-20T13:01:02;2.70;99.90
46562;DHT22;32289;42.688;23.330;2023-12-20T13:04:43;2.50;99.90
46562;DHT22;32289;42.688;23.330;2023-12-20T13:08:24;2.50;99.90
46562;DHT22;32289;42.688;23.330;2023-12-20T13:12:08;2.00;99.90
46562;DHT22;32289;42.688;23.330;2023-12-20T13:15:49;2.10;99.90
46562;DHT22;32289;42.688;23.330;2023-12-20T13:19:33;2.10;99.90
46562;DHT22;32289;42.688;23.330;2023-12-20T13:23:14;1.90;99.90
46562;DHT22;32289;42.688;23.330;2023-12-20T13:26:55;1.80;99.90
46562;DHT22;32289;42.688;23.330;2023-12-20T13:30:36;1.80;99.90
46562;DHT22;32289;42.688;23.330;2023-12-20T13:34:16;1.70;99.90
46562;DHT22;32289;42.688;23.330;2023-12-20T13:37:58;1.70;99.90
46562;DHT22;32289;42.688;23.330;2023-12-20T13:41:39;1.60;99.90
46562;DHT22;32289;42.688;23.330;2023-12-20T13:45:19;1.60;99.90
46562;DHT22;32289;42.688;23.330;2023-12-20T13:49:00;1.40;99.90
46562;DHT22;32289;42.688;23.330;2023-12-20T13:52:42;1.50;99.90
46562;DHT22;32289;42.688;23.330;2023-12-20T13:56:22;1.50;99.90
46562;DHT22;32289;42.688;23.330;2023-12-20T14:00:06;1.50;99.90
46562;DHT22;32289;42.688;23.330;2023-12-20T14:03:53;1.50;99.90
46562;DHT22;32289;42.688;23.330;2023-12-20T14:07:34;1.40;99.90
46562;DHT22;32289;42.688;23.330;2023-12-20T14:11:15;1.10;99.90
46562;DHT22;32289;42.688;23.330;2023-12-20T14:14:56;1.00;99.90
46562;DHT22;32289;42.688;23.330;2023-12-20T14:18:36;1.20;99.90
46562;DHT22;32289;42.688;23.330;2023-12-20T14:22:17;1.40;99.90
46562;DHT22;32289;42.688;23.330;2023-12-20T14:25:59;1.50;99.90
46562;DHT22;32289;42.688;23.330;2023-12-20T14:29:40;1.30;99.90
46562;DHT22;32289;42.688;23.330;2023-12-20T14:33:20;1.30;99.90
46562;DHT22;32289;42.688;23.330;2023-12-20T14:37:02;1.30;99.90
46562;DHT22;32289;42.688;23.330;2023-12-20T14:40:43;1.20;99.90
46562;DHT22;32289;42.688;23.330;2023-12-20T14:44:24;1.30;99.90
46562;DHT22;32289;42.688;23.330;2023-12-20T14:48:05;1.10;99.90
46562;DHT22;32289;42.688;23.330;2023-12-20T14:51:46;1.20;99.90
46562;DHT22;32289;42.688;23.330;2023-12-20T14:55:28;1.30;99.90
46562;DHT22;32289;42.688;23.330;2023-12-20T14:59:10;1.30;99.90
46562;DHT22;32289;42.688;23.330;2023-12-20T15:02:51;1.10;99.90
46562;DHT22;32289;42.688;23.330;2023-12-20T15:06:32;1.10;99.90
46562;DHT22;32289;42.688;23.330;2023-12-20T15:10:14;1.00;99.90
46562;DHT22;32289;42.688;23.330;2023-12-20T15:13:54;1.10;99.90
46562;DHT22;32289;42.688;23.330;2023-12-20T15:17:38;1.30;99.90
46562;DHT22;32289;42.688;23.330;2023-12-20T15:21:19;1.10;99.90
46562;DHT22;32289;42.688;23.330;2023-12-20T15:25:00;1.10;99.90
46562;DHT22;32289;42.688;23.330;2023-12-20T15:28:41;0.80;99.90
46562;DHT22;32289;42.688;23.330;2023-12-20T15:32:23;0.70;99.90
46562;DHT22;32289;42.688;23.330;2023-12-20T15:36:04;0.60;99.90
46562;DHT22;32289;42.688;23.330;2023-12-20T15:39:45;0.60;99.90
46562;DHT22;32289;42.688;23.330;2023-12-20T15:43:25;0.80;99.90
46562;DHT22;32289;42.688;23.330;2023-12-20T15:47:06;0.70;99.90
46562;DHT22;32289;42.688;23.330;2023-12-20T15:50:47;0.70;99.90
46562;DHT22;32289;42.688;23.330;2023-12-20T15:54:28;0.70;99.90
46562;DHT22;32289;42.688;23.330;2023-12-20T15:58:08;0.60;99.90
46562;DHT22;32289;42.688;23.330;2023-12-20T16:01:49;0.80;99.90
46562;DHT22;32289;42.688;23.330;2023-12-20T16:05:29;0.70;99.90
46562;DHT22;32289;42.688;23.330;2023-12-20T16:09:10;0.70;99.90
46562;DHT22;32289;42.688;23.330;2023-12-20T16:12:52;0.40;99.90
46562;DHT22;32289;42.688;23.330;2023-12-20T16:16:33;0.50;99.90
46562;DHT22;32289;42.688;23.330;2023-12-20T16:20:14;0.50;99.90
46562;DHT22;32289;42.688;23.330;2023-12-20T16:23:55;0.40;99.90
46562;DHT22;32289;42.688;23.330;2023-12-20T16:27:35;0.60;99.90
46562;DHT22;32289;42.688;23.330;2023-12-20T16:31:16;0.60;99.90
46562;DHT22;32289;42.688;23.330;2023-12-20T16:34:57;0.60;99.90
46562;DHT22;32289;42.688;23.330;2023-12-20T16:38:38;0.50;99.90
46562;DHT22;32289;42.688;23.330;2023-12-20T16:42:19;0.60;99.90
46562;DHT22;32289;42.688;23.330;2023-12-20T16:46:00;0.40;99.90
46562;DHT22;32289;42.688;23.330;2023-12-20T16:49:41;0.30;99.90
46562;DHT22;32289;42.688;23.330;2023-12-20T16:53:21;0.40;99.90
46562;DHT22;32289;42.688;23.330;2023-12-20T16:57:02;0.60;99.90
46562;DHT22;32289;42.688;23.330;2023-12-20T17:00:43;0.60;99.90
46562;DHT22;32289;42.688;23.330;2023-12-20T17:04:23;0.50;99.90
46562;DHT22;32289;42.688;23.330;2023-12-20T17:08:04;0.40;99.90
46562;DHT22;32289;42.688;23.330;2023-12-20T17:11:45;0.40;99.90
46562;DHT22;32289;42.688;23.330;2023-12-20T17:15:26;0.30;99.90
46562;DHT22;32289;42.688;23.330;2023-12-20T17:19:06;0.30;99.90
46562;DHT22;32289;42.688;23.330;2023-12-20T17:22:47;0.30;99.90
46562;DHT22;32289;42.688;23.330;2023-12-20T17:26:28;0.30;99.90
46562;DHT22;32289;42.688;23.330;2023-12-20T17:30:09;0.40;99.90
46562;DHT22;32289;42.688;23.330;2023-12-20T17:33:50;0.40;99.90
46562;DHT22;32289;42.688;23.330;2023-12-20T17:37:30;0.40;99.90
46562;DHT22;32289;42.688;23.330;2023-12-20T17:41:11;0.40;99.90
46562;DHT22;32289;42.688;23.330;2023-12-20T17:44:52;0.40;99.90
46562;DHT22;32289;42.688;23.330;2023-12-20T17:48:32;0.60;99.90
46562;DHT22;32289;42.688;23.330;2023-12-20T17:52:13;0.40;99.90
46562;DHT22;32289;42.688;23.330;2023-12-20T17:55:53;0.40;99.90
46562;DHT22;32289;42.688;23.330;2023-12-20T17:59:34;0.40;99.90
46562;DHT22;32289;42.688;23.330;2023-12-20T18:03:15;0.00;99.90
46562;DHT22;32289;42.688;23.330;2023-12-20T18:06:55;0.00;99.90
46562;DHT22;32289;42.688;23.330;2023-12-20T18:10:36;-0.30;99.90
46562;DHT22;32289;42.688;23.330;2023-12-20T18:14:17;-0.40;99.90
46562;DHT22;32289;42.688;23.330;2023-12-20T18:17:57;-0.40;99.90
46562;DHT22;32289;42.688;23.330;2023-12-20T18:21:38;-0.20;99.90
46562;DHT22;32289;42.688;23.330;2023-12-20T18:25:19;-0.60;99.90
46562;DHT22;32289;42.688;23.330;2023-12-20T18:28:59;-0.40;99.90
46562;DHT22;32289;42.688;23.330;2023-12-20T18:32:40;-0.40;99.90
46562;DHT22;32289;42.688;23.330;2023-12-20T18:36:21;-0.60;99.90
46562;DHT22;32289;42.688;23.330;2023-12-20T18:40:03;-0.60;99.90
46562;DHT22;32289;42.688;23.330;2023-12-20T18:43:44;-0.80;99.90
46562;DHT22;32289;42.688;23.330;2023-12-20T18:47:25;-0.60;99.90
46562;DHT22;32289;42.688;23.330;2023-12-20T18:51:05;-0.20;99.90
46562;DHT22;32289;42.688;23.330;2023-12-20T18:54:46;-0.10;99.90
46562;DHT22;32289;42.688;23.330;2023-12-20T18:58:27;0.00;99.90
46562;DHT22;32289;42.688;23.330;2023-12-20T19:02:10;-0.20;99.90
46562;DHT22;32289;42.688;23.330;2023-12-20T19:05:52;0.00;99.90
46562;DHT22;32289;42.688;23.330;2023-12-20T19:09:33;-0.20;99.90
46562;DHT22;32289;42.688;23.330;2023-12-20T19:13:14;0.00;99.90
46562;DHT22;32289;42.688;23.330;2023-12-20T19:16:55;0.10;99.90
46562;DHT22;32289;42.688;23.330;2023-12-20T19:20:39;-0.10;99.90
46562;DHT22;32289;42.688;23.330;2023-12-20T19:24:20;-0.30;99.90
46562;DHT22;32289;42.688;23.330;2023-12-20T19:28:01;-0.20;99.90
46562;DHT22;32289;42.688;23.330;2023-12-20T19:31:41;-0.20;99.90
46562;DHT22;32289;42.688;23.330;2023-12-20T19:35:22;-0.50;99.90
46562;DHT22;32289;42.688;23.330;2023-12-20T19:39:03;-0.30;99.90
46562;DHT22;32289;42.688;23.330;2023-12-20T19:42:44;0.00;99.90
46562;DHT22;32289;42.688;23.330;2023-12-20T19:46:25;-0.10;99.90
46562;DHT22;32289;42.688;23.330;2023-12-20T19:50:08;0.00;99.90
46562;DHT22;32289;42.688;23.330;2023-12-20T19:53:49;-0.10;99.90
46562;DHT22;32289;42.688;23.330;2023-12-20T19:57:30;0.00;99.90
46562;DHT22;32289;42.688;23.330;2023-12-20T20:01:10;-0.30;99.90
46562;DHT22;32289;42.688;23.330;2023-12-20T20:04:51;-0.40;99.90
46562;DHT22;32289;42.688;23.330;2023-12-20T20:08:32;-0.50;99.90
46562;DHT22;32289;42.688;23.330;2023-12-20T20:12:15;-0.40;99.90
46562;DHT22;32289;42.688;23.330;2023-12-20T20:15:56;-0.40;99.90
46562;DHT22;32289;42.688;23.330;2023-12-20T20:19:37;-0.60;99.90
46562;DHT22;32289;42.688;23.330;2023-12-20T20:23:18;-0.60;99.90
46562;DHT22;32289;42.688;23.330;2023-12-20T20:26:58;-0.60;99.90
46562;DHT22;32289;42.688;23.330;2023-12-20T20:30:39;1.20;99.90
46562;DHT22;32289;42.688;23.330;2023-12-20T20:34:20;-0.10;99.90
46562;DHT22;32289;42.688;23.330;2023-12-20T20:38:01;-0.10;99.90
46562;DHT22;32289;42.688;23.330;2023-12-20T20:41:42;0.00;99.90
46562;DHT22;32289;42.688;23.330;2023-12-20T20:45:23;-0.10;99.90
46562;DHT22;32289;42.688;23.330;2023-12-20T20:49:05;-0.10;99.90
46562;DHT22;32289;42.688;23.330;2023-12-20T20:52:46;-0.10;99.90
46562;DHT22;32289;42.688;23.330;2023-12-20T20:56:27;0.00;99.90
46562;DHT22;32289;42.688;23.330;2023-12-20T21:00:08;0.10;99.90
46562;DHT22;32289;42.688;23.330;2023-12-20T21:03:51;0.00;99.90
46562;DHT22;32289;42.688;23.330;2023-12-20T21:07:32;0.10;99.90
46562;DHT22;32289;42.688;23.330;2023-12-20T21:11:16;-0.20;99.90
46562;DHT22;32289;42.688;23.330;2023-12-20T21:14:59;-0.50;99.90
46562;DHT22;32289;42.688;23.330;2023-12-20T21:18:43;-0.50;99.90
46562;DHT22;32289;42.688;23.330;2023-12-20T21:22:27;-0.60;99.90
46562;DHT22;32289;42.688;23.330;2023-12-20T21:26:11;-0.40;99.90
46562;DHT22;32289;42.688;23.330;2023-12-20T21:29:51;-0.60;99.90
46562;DHT22;32289;42.688;23.330;2023-12-20T21:33:32;-0.60;99.90
46562;DHT22;32289;42.688;23.330;2023-12-20T21:37:13;-0.70;99.90
46562;DHT22;32289;42.688;23.330;2023-12-20T21:40:53;-0.40;99.90
46562;DHT22;32289;42.688;23.330;2023-12-20T21:44:35;-0.20;99.90
46562;DHT22;32289;42.688;23.330;2023-12-20T21:48:15;-0.50;99.90
46562;DHT22;32289;42.688;23.330;2023-12-20T21:51:56;-0.50;99.90
46562;DHT22;32289;42.688;23.330;2023-12-20T21:55:39;-0.30;99.90
46562;DHT22;32289;42.688;23.330;2023-12-20T21:59:20;-0.40;99.90
46562;DHT22;32289;42.688;23.330;2023-12-20T22:03:05;-0.40;99.90
46562;DHT22;32289;42.688;23.330;2023-12-20T22:06:49;-0.60;99.90
46562;DHT22;32289;42.688;23.330;2023-12-20T22:10:29;-0.70;99.90
46562;DHT22;32289;42.688;23.330;2023-12-20T22:14:11;-0.50;99.90
46562;DHT22;32289;42.688;23.330;2023-12-20T22:17:52;-0.50;99.90
46562;DHT22;32289;42.688;23.330;2023-12-20T22:21:33;-0.30;99.90
46562;DHT22;32289;42.688;23.330;2023-12-20T22:25:14;-0.50;99.90
46562;DHT22;32289;42.688;23.330;2023-12-20T22:28:54;-0.50;99.90
46562;DHT22;32289;42.688;23.330;2023-12-20T22:32:35;-0.70;99.90
46562;DHT22;32289;42.688;23.330;2023-12-20T22:36:18;-0.90;99.90
46562;DHT22;32289;42.688;23.330;2023-12-20T22:39:59;-0.70;99.90
46562;DHT22;32289;42.688;23.330;2023-12-20T22:43:40;-0.90;99.90
46562;DHT22;32289;42.688;23.330;2023-12-20T22:47:22;-1.00;99.90
46562;DHT22;32289;42.688;23.330;2023-12-20T22:51:04;-0.90;99.90
46562;DHT22;32289;42.688;23.330;2023-12-20T22:54:45;-0.90;99.90
46562;DHT22;32289;42.688;23.330;2023-12-20T22:58:26;-1.00;99.90
46562;DHT22;32289;42.688;23.330;2023-12-20T23:02:06;-1.00;99.90
46562;DHT22;32289;42.688;23.330;2023-12-20T23:05:48;-1.00;99.90